createdAt,value
2018-05-18T00:01:41.131Z,35.10
2018-05-18T00:04:11.004Z,33.17
2018-05-18T00:06:40.906Z,27.10
2018-05-18T00:09:10.001Z,34.00
2018-05-18T00:11:39.163Z,28.27
2018-05-18T00:14:08.292Z,29.63
2018-05-18T00:16:37.641Z,44.47
2018-05-18T00:19:07.535Z,32.67
2018-05-18T00:21:36.643Z,33.33
2018-05-18T00:24:07.190Z,27.57
2018-05-18T00:26:37.270Z,33.23
2018-05-18T00:29:06.400Z,29.33
2018-05-18T00:31:36.285Z,34.37
2018-05-18T00:34:06.146Z,39.07
2018-05-18T00:36:35.285Z,31.27
2018-05-18T00:39:06.054Z,30.63
2018-05-18T00:41:37.097Z,27.07
2018-05-18T00:44:06.243Z,28.77
2018-05-18T00:46:35.369Z,31.87
2018-05-18T00:49:05.780Z,29.13
2018-05-18T00:51:35.654Z,24.47
2018-05-18T00:54:04.753Z,33.00
2018-05-18T00:56:33.876Z,25.40
2018-05-18T00:59:02.993Z,32.53
2018-05-18T01:01:32.873Z,36.03
2018-05-18T01:04:01.988Z,32.93
2018-05-18T01:06:31.873Z,32.47
2018-05-18T01:09:01.634Z,27.60
2018-05-18T01:11:30.771Z,34.73
2018-05-18T01:13:59.953Z,31.93
2018-05-18T01:16:29.081Z,29.53
2018-05-18T01:18:58.523Z,32.23
2018-05-18T01:21:27.612Z,30.90
2018-05-18T01:23:57.523Z,32.40
2018-05-18T01:26:28.445Z,31.57
2018-05-18T01:28:57.575Z,35.90
2018-05-18T01:31:26.767Z,22.50
2018-05-18T01:33:55.867Z,26.90
2018-05-18T01:36:24.990Z,23.73
2018-05-18T01:38:55.017Z,27.10
2018-05-18T01:41:24.160Z,30.73
2018-05-18T01:43:53.260Z,24.33
2018-05-18T01:46:22.380Z,28.80
2018-05-18T01:48:52.258Z,22.40
2018-05-18T01:51:22.164Z,27.67
2018-05-18T01:53:51.280Z,20.60
2018-05-18T01:56:20.398Z,28.40
2018-05-18T01:58:49.517Z,26.33
2018-05-18T02:01:18.644Z,32.53
2018-05-18T02:03:47.771Z,27.30
2018-05-18T02:06:16.868Z,22.50
2018-05-18T02:08:46.619Z,25.63
2018-05-18T02:11:16.651Z,25.63
2018-05-18T02:13:45.788Z,23.30
2018-05-18T02:16:14.895Z,23.53
2018-05-18T02:18:44.026Z,22.37
2018-05-18T02:21:13.923Z,21.57
2018-05-18T02:23:43.528Z,24.60
2018-05-18T02:26:13.423Z,23.03
2018-05-18T02:28:43.602Z,20.00
2018-05-18T02:31:12.728Z,28.47
2018-05-18T02:33:41.938Z,28.30
2018-05-18T02:36:11.078Z,25.37
2018-05-18T02:38:41.219Z,27.87
2018-05-18T02:41:10.339Z,14.40
2018-05-18T02:43:40.381Z,22.53
2018-05-18T02:46:09.523Z,22.80
2018-05-18T02:48:38.613Z,21.43
2018-05-18T02:51:07.766Z,20.90
2018-05-18T02:53:37.633Z,19.33
2018-05-18T02:56:06.757Z,15.57
2018-05-18T02:58:37.592Z,24.97
2018-05-18T03:01:07.453Z,22.90
2018-05-18T03:03:36.588Z,20.33
2018-05-18T03:06:05.663Z,18.77
2018-05-18T03:08:36.855Z,20.40
2018-05-18T03:11:05.961Z,17.67
2018-05-18T03:13:36.045Z,21.33
2018-05-18T03:16:05.910Z,13.97
2018-05-18T03:18:35.054Z,17.63
2018-05-18T03:21:04.920Z,15.90
2018-05-18T03:23:35.506Z,17.03
2018-05-18T03:26:05.438Z,16.43
2018-05-18T03:28:34.549Z,17.93
2018-05-18T03:31:03.649Z,22.83
2018-05-18T03:33:33.714Z,24.70
2018-05-18T03:36:02.828Z,22.10
2018-05-18T03:38:32.710Z,27.02
2018-05-18T03:41:01.840Z,21.57
2018-05-18T03:43:31.705Z,25.05
2018-05-18T03:46:00.880Z,16.93
2018-05-18T03:48:30.953Z,21.43
2018-05-18T03:51:00.051Z,19.37
2018-05-18T03:53:29.937Z,22.17
2018-05-18T03:55:59.047Z,19.30
2018-05-18T03:58:28.182Z,20.80
2018-05-18T04:00:57.274Z,25.70
2018-05-18T04:03:44.249Z,23.10
2018-05-18T04:09:22.063Z,20.23
2018-05-18T04:11:51.224Z,18.93
2018-05-18T04:14:20.316Z,15.20
2018-05-18T04:16:49.429Z,13.27
2018-05-18T04:19:18.546Z,16.67
2018-05-18T04:21:47.639Z,12.10
2018-05-18T04:24:16.772Z,20.73
2018-05-18T04:26:45.900Z,14.80
2018-05-18T04:29:15.777Z,24.40
2018-05-18T04:31:45.652Z,17.30
2018-05-18T04:34:15.785Z,23.20
2018-05-18T04:36:44.924Z,15.70
2018-05-18T04:39:14.976Z,21.57
2018-05-18T04:41:44.182Z,16.10
2018-05-18T04:44:13.306Z,16.53
2018-05-18T04:46:42.489Z,19.60
2018-05-18T04:49:11.582Z,26.00
2018-05-18T04:51:40.725Z,16.63
2018-05-18T04:54:09.973Z,15.10
2018-05-18T04:56:39.077Z,17.63
2018-05-18T04:59:08.217Z,20.05
2018-05-18T05:01:37.376Z,17.33
2018-05-18T05:04:06.486Z,21.87
2018-05-18T05:06:36.391Z,18.13
2018-05-18T05:09:06.470Z,28.13
2018-05-18T05:11:36.553Z,34.43
2018-05-18T05:14:05.662Z,23.43
2018-05-18T05:16:34.779Z,25.97
2018-05-18T05:19:03.923Z,18.73
2018-05-18T05:21:33.035Z,24.70
2018-05-18T05:24:02.896Z,27.60
2018-05-18T05:26:32.034Z,20.27
2018-05-18T05:29:01.943Z,27.07
2018-05-18T05:31:31.747Z,31.67
2018-05-18T05:34:00.895Z,36.50
2018-05-18T05:36:29.995Z,27.87
2018-05-18T05:38:59.125Z,35.20
2018-05-18T05:41:29.270Z,25.70
2018-05-18T05:44:00.029Z,35.85
2018-05-18T05:46:29.143Z,37.83
2018-05-18T05:48:58.280Z,43.20
2018-05-18T05:51:27.412Z,37.93
2018-05-18T05:53:56.545Z,44.15
2018-05-18T05:56:26.734Z,42.00
2018-05-18T05:58:56.097Z,38.63
2018-05-18T06:01:26.741Z,30.83
2018-05-18T06:03:55.934Z,44.22
2018-05-18T06:06:25.970Z,37.60
2018-05-18T06:08:55.105Z,41.97
2018-05-18T06:11:24.266Z,38.57
2018-05-18T06:13:54.134Z,46.85
2018-05-18T06:16:24.811Z,34.63
2018-05-18T06:18:54.728Z,34.80
2018-05-18T06:21:23.836Z,48.90
2018-05-18T06:23:52.964Z,36.03
2018-05-18T06:26:22.980Z,47.53
2018-05-18T06:28:52.093Z,40.07
2018-05-18T06:31:21.971Z,46.13
2018-05-18T06:33:52.621Z,43.50
2018-05-18T06:36:22.499Z,46.57
2018-05-18T06:38:51.640Z,28.00
2018-05-18T06:41:20.818Z,36.57
2018-05-18T06:43:50.763Z,36.13
2018-05-18T06:46:19.885Z,35.33
2018-05-18T06:48:49.017Z,28.83
2018-05-18T06:51:18.164Z,33.30
2018-05-18T06:53:47.288Z,45.00
2018-05-18T06:56:17.350Z,42.73
2018-05-18T06:58:47.223Z,50.10
2018-05-18T07:01:16.468Z,34.00
2018-05-18T07:03:45.895Z,30.83
2018-05-18T07:06:15.774Z,49.93
2018-05-18T07:08:44.914Z,52.83
2018-05-18T07:11:14.793Z,40.13
2018-05-18T07:13:44.804Z,35.85
2018-05-18T07:16:13.935Z,45.83
2018-05-18T07:18:45.118Z,26.33
2018-05-18T07:21:14.256Z,47.03
2018-05-18T07:23:43.369Z,43.00
2018-05-18T07:26:12.519Z,33.63
2018-05-18T07:28:41.637Z,54.10
2018-05-18T07:31:10.795Z,46.03
2018-05-18T07:33:39.910Z,49.97
2018-05-18T07:36:09.152Z,42.83
2018-05-18T07:38:38.188Z,29.67
2018-05-18T07:41:07.296Z,41.00
2018-05-18T07:43:37.383Z,40.37
2018-05-18T07:46:07.273Z,40.77
2018-05-18T07:48:36.414Z,39.07
2018-05-18T07:51:05.558Z,36.73
2018-05-18T07:53:34.731Z,37.37
2018-05-18T07:56:03.820Z,34.23
2018-05-18T07:58:32.948Z,40.43
2018-05-18T08:01:02.120Z,49.13
2018-05-18T08:03:31.230Z,46.80
2018-05-18T08:06:00.373Z,36.90
2018-05-18T08:08:29.493Z,43.13
2018-05-18T08:10:58.680Z,42.67
2018-05-18T08:13:27.814Z,32.13
2018-05-18T08:15:56.967Z,31.30
2018-05-18T08:18:26.103Z,35.10
2018-05-18T08:20:55.220Z,43.58
2018-05-18T08:26:23.804Z,39.27
2018-05-18T08:29:10.485Z,34.33
2018-05-18T08:31:39.700Z,41.43
2018-05-18T08:34:08.829Z,31.67
2018-05-18T08:36:38.730Z,38.03
2018-05-18T08:39:08.000Z,32.67
2018-05-18T08:41:37.897Z,31.70
2018-05-18T08:44:07.002Z,33.17
2018-05-18T08:46:36.142Z,35.20
2018-05-18T08:49:05.257Z,40.87
2018-05-18T08:51:35.162Z,37.03
2018-05-18T08:54:04.669Z,46.30
2018-05-18T08:56:34.566Z,36.13
2018-05-18T08:59:03.685Z,33.17
2018-05-18T09:01:33.603Z,44.43
2018-05-18T09:04:03.470Z,42.15
2018-05-18T09:06:32.591Z,38.17
2018-05-18T09:09:02.647Z,34.35
2018-05-18T09:14:02.757Z,33.67
2018-05-18T09:16:31.841Z,35.33
2018-05-18T09:19:02.690Z,36.17
2018-05-18T09:21:32.584Z,44.67
2018-05-18T09:24:01.781Z,33.87
2018-05-18T09:26:31.005Z,41.90
2018-05-18T09:29:00.039Z,42.67
2018-05-18T09:31:29.213Z,40.90
2018-05-18T09:33:59.165Z,40.30
2018-05-18T09:36:28.210Z,47.57
2018-05-18T09:38:58.095Z,42.97
2018-05-18T09:41:27.216Z,40.93
2018-05-18T09:43:57.106Z,39.10
2018-05-18T09:46:27.716Z,48.47
2018-05-18T09:48:56.877Z,45.33
2018-05-18T09:51:25.981Z,47.00
2018-05-18T09:53:55.845Z,40.53
2018-05-18T09:56:24.999Z,47.90
2018-05-18T09:58:54.119Z,38.22
2018-05-18T10:01:24.186Z,37.77
2018-05-18T10:03:54.124Z,42.30
2018-05-18T10:06:23.247Z,56.80
2018-05-18T10:08:52.354Z,37.22
2018-05-18T10:11:21.493Z,45.75
2018-05-18T10:13:50.590Z,41.42
2018-05-18T10:16:19.739Z,36.77
2018-05-18T10:18:49.174Z,44.17
2018-05-18T10:21:18.322Z,39.70
2018-05-18T10:23:47.435Z,42.47
2018-05-18T10:26:17.035Z,41.90
2018-05-18T10:28:46.147Z,38.03
2018-05-18T10:31:15.273Z,52.77
2018-05-18T10:33:45.529Z,39.86
2018-05-18T10:36:14.637Z,35.00
2018-05-18T10:38:43.769Z,43.07
2018-05-18T10:41:12.901Z,43.63
2018-05-18T10:43:42.004Z,42.03
2018-05-18T10:46:11.912Z,60.47
2018-05-18T10:48:41.031Z,46.60
2018-05-18T10:51:10.175Z,48.63
2018-05-18T10:53:40.080Z,38.90
2018-05-18T10:56:09.192Z,49.47
2018-05-18T10:58:39.183Z,39.93
2018-05-18T11:01:08.229Z,53.33
2018-05-18T11:03:38.125Z,50.30
2018-05-18T11:06:08.026Z,46.70
2018-05-18T11:08:37.193Z,55.27
2018-05-18T11:11:06.309Z,39.67
2018-05-18T11:13:35.416Z,46.43
2018-05-18T11:16:05.299Z,49.40
2018-05-18T11:18:35.210Z,36.80
2018-05-18T11:21:04.291Z,43.87
2018-05-18T11:23:33.470Z,37.23
2018-05-18T11:26:03.371Z,51.05
2018-05-18T11:28:32.641Z,55.00
2018-05-18T11:31:01.766Z,39.37
2018-05-18T11:33:35.792Z,41.50
2018-05-18T11:36:06.744Z,54.60
2018-05-18T11:38:35.856Z,51.63
2018-05-18T11:41:04.978Z,50.77
2018-05-18T11:43:34.107Z,48.93
2018-05-18T11:46:03.243Z,50.72
2018-05-18T11:48:32.353Z,52.93
2018-05-18T11:51:01.565Z,49.90
2018-05-18T11:53:30.671Z,37.73
2018-05-18T11:56:01.621Z,34.37
2018-05-18T11:58:30.732Z,53.30
2018-05-18T12:00:59.876Z,39.30
2018-05-18T12:03:29.120Z,42.07
2018-05-18T12:05:58.106Z,48.70
2018-05-18T12:08:27.403Z,42.43
2018-05-18T12:10:56.485Z,45.15
2018-05-18T12:13:25.728Z,49.20
2018-05-18T12:15:54.841Z,41.90
2018-05-18T12:18:23.981Z,41.70
2018-05-18T12:20:54.000Z,60.30
2018-05-18T12:23:23.124Z,35.07
2018-05-18T12:25:52.265Z,35.03
2018-05-18T12:28:23.910Z,40.43
2018-05-18T12:30:53.429Z,40.03
2018-05-18T12:33:22.537Z,45.70
2018-05-18T12:35:52.415Z,35.90
2018-05-18T12:38:21.700Z,44.80
2018-05-18T12:40:50.739Z,35.80
2018-05-18T12:43:20.659Z,39.23
2018-05-18T12:45:50.666Z,40.87
2018-05-18T12:48:19.769Z,38.40
2018-05-18T12:50:49.645Z,36.13
2018-05-18T12:53:18.824Z,34.77
2018-05-18T12:55:47.925Z,44.10
2018-05-18T12:58:17.054Z,47.83
2018-05-18T13:00:46.184Z,42.80
2018-05-18T13:03:16.330Z,39.70
2018-05-18T13:05:45.938Z,35.53
2018-05-18T13:08:15.175Z,41.03
2018-05-18T13:10:46.216Z,38.63
2018-05-18T13:13:15.337Z,45.33
2018-05-18T13:15:46.475Z,35.87
2018-05-18T13:18:16.370Z,47.83
2018-05-18T13:20:46.047Z,44.40
2018-05-18T13:23:15.184Z,31.07
2018-05-18T13:25:44.314Z,36.17
2018-05-18T13:28:13.440Z,36.90
2018-05-18T13:30:42.702Z,35.87
2018-05-18T13:33:11.840Z,36.00
2018-05-18T13:35:40.920Z,33.43
2018-05-18T13:38:10.045Z,29.20
2018-05-18T13:40:39.974Z,49.23
2018-05-18T13:43:09.079Z,30.50
2018-05-18T13:45:38.206Z,28.27
2018-05-18T13:48:08.141Z,24.83
2018-05-18T13:50:37.244Z,35.70
2018-05-18T13:53:07.293Z,31.60
2018-05-18T13:55:36.412Z,32.50
2018-05-18T13:58:07.318Z,32.47
2018-05-18T14:00:36.411Z,27.97
2018-05-18T14:03:05.550Z,34.63
2018-05-18T14:05:35.432Z,20.90
2018-05-18T14:08:06.247Z,31.83
2018-05-18T14:10:35.400Z,22.10
2018-05-18T14:13:07.616Z,18.87
2018-05-18T14:15:36.780Z,34.73
2018-05-18T14:18:07.685Z,22.33
2018-05-18T14:20:36.870Z,24.43
2018-05-18T14:23:05.985Z,34.50
2018-05-18T14:25:35.186Z,27.23
2018-05-18T14:28:04.266Z,31.27
2018-05-18T14:30:33.422Z,29.67
2018-05-18T14:33:03.594Z,27.23
2018-05-18T14:35:32.642Z,26.53
2018-05-18T14:38:02.085Z,22.35
2018-05-18T14:40:31.158Z,26.50
2018-05-18T14:43:02.233Z,27.00
2018-05-18T14:45:31.339Z,29.30
2018-05-18T14:48:01.253Z,27.67
2018-05-18T14:50:30.384Z,29.10
2018-05-18T14:53:00.490Z,30.03
2018-05-18T14:55:29.638Z,27.60
2018-05-18T14:57:58.738Z,26.10
2018-05-18T15:00:27.868Z,28.73
2018-05-18T15:02:57.776Z,23.62
2018-05-18T15:05:27.934Z,26.50
2018-05-18T15:07:57.049Z,26.70
2018-05-18T15:10:26.938Z,23.08
2018-05-18T15:12:57.013Z,25.17
2018-05-18T15:15:26.149Z,36.07
2018-05-18T15:17:55.332Z,23.67
2018-05-18T15:20:24.502Z,29.50
2018-05-18T15:22:53.617Z,28.12
2018-05-18T15:25:23.478Z,25.07
2018-05-18T15:27:52.775Z,23.35
2018-05-18T15:30:21.892Z,25.37
2018-05-18T15:32:51.017Z,25.33
2018-05-18T15:35:21.801Z,23.83
2018-05-18T15:37:52.532Z,26.65
2018-05-18T15:40:22.758Z,28.27
2018-05-18T15:42:51.887Z,21.17
2018-05-18T15:45:21.041Z,27.30
2018-05-18T15:47:50.205Z,31.07
2018-05-18T15:50:19.314Z,28.33
2018-05-18T15:52:49.221Z,26.00
2018-05-18T15:55:19.114Z,28.48
2018-05-18T15:57:48.289Z,27.50
2018-05-18T16:00:17.431Z,37.00
2018-05-18T16:02:47.317Z,28.33
2018-05-18T16:05:18.097Z,28.53
2018-05-18T16:07:47.215Z,28.10
2018-05-18T16:10:17.112Z,27.83
2018-05-18T16:12:46.215Z,33.93
2018-05-18T16:15:15.546Z,23.23
2018-05-18T16:17:44.662Z,36.10
2018-05-18T16:20:13.819Z,35.83
2018-05-18T16:22:42.922Z,35.33
2018-05-18T16:25:12.072Z,32.97
2018-05-18T16:27:41.980Z,36.07
2018-05-18T16:30:11.094Z,39.10
2018-05-18T16:32:40.993Z,34.57
2018-05-18T16:35:11.167Z,33.30
2018-05-18T16:37:40.262Z,34.57
2018-05-18T16:40:09.491Z,33.97
2018-05-18T16:42:38.615Z,31.37
2018-05-18T16:45:08.474Z,34.10
2018-05-18T16:47:38.391Z,31.50
2018-05-18T16:50:08.285Z,40.00
2018-05-18T16:52:38.341Z,37.37
2018-05-18T16:55:07.468Z,39.78
2018-05-18T16:57:36.607Z,39.37
2018-05-18T17:00:05.704Z,41.70
2018-05-18T17:02:35.623Z,34.70
2018-05-18T17:05:04.723Z,35.37
2018-05-18T17:07:34.625Z,35.70
2018-05-18T17:10:03.785Z,34.28
2018-05-18T17:12:32.990Z,30.30
2018-05-18T17:15:02.137Z,36.17
2018-05-18T17:17:32.081Z,37.43
2018-05-18T17:20:01.230Z,34.40
2018-05-18T17:22:30.316Z,34.57
2018-05-18T17:24:59.433Z,37.83
2018-05-18T17:27:29.333Z,36.17
2018-05-18T17:29:58.473Z,38.47
2018-05-18T17:32:27.610Z,38.90
2018-05-18T17:34:56.756Z,33.23
2018-05-18T17:37:25.877Z,39.90
2018-05-18T17:39:55.001Z,40.60
2018-05-18T17:42:24.884Z,32.00
2018-05-18T17:44:54.048Z,40.17
2018-05-18T17:47:24.162Z,37.80
2018-05-18T17:49:54.069Z,36.25
2018-05-18T17:52:23.217Z,33.40
2018-05-18T17:54:52.367Z,41.07
2018-05-18T17:57:21.508Z,40.10
2018-05-18T17:59:50.610Z,41.50
2018-05-18T18:02:19.752Z,36.40
2018-05-18T18:04:49.658Z,33.33
2018-05-18T18:07:18.869Z,34.50
2018-05-18T18:09:47.973Z,37.50
2018-05-18T18:12:17.866Z,36.43
2018-05-18T18:14:47.050Z,42.53
2018-05-18T18:17:16.210Z,36.13
2018-05-18T18:19:46.568Z,40.77
2018-05-18T18:22:16.639Z,38.50
2018-05-18T18:24:47.659Z,33.34
2018-05-18T18:27:17.572Z,33.37
2018-05-18T18:29:46.808Z,40.53
2018-05-18T18:32:16.687Z,42.00
2018-05-18T18:34:46.872Z,36.40
2018-05-18T18:37:16.005Z,33.47
2018-05-18T18:39:47.164Z,37.60
2018-05-18T18:42:18.089Z,38.53
2018-05-18T18:44:47.285Z,39.97
2018-05-18T18:47:17.192Z,38.10
2018-05-18T18:49:47.809Z,34.47
2018-05-18T18:52:16.857Z,35.33
2018-05-18T18:54:47.029Z,32.44
2018-05-18T18:57:16.158Z,30.20
2018-05-18T18:59:45.287Z,34.97
2018-05-18T19:02:15.431Z,30.10
2018-05-18T19:04:44.562Z,32.33
2018-05-18T19:07:14.457Z,34.30
2018-05-18T19:09:43.633Z,30.23
2018-05-18T19:12:12.787Z,26.43
2018-05-18T19:14:42.762Z,24.93
2018-05-18T19:17:11.907Z,22.77
2018-05-18T19:19:41.061Z,35.83
2018-05-18T19:22:11.021Z,23.67
2018-05-18T19:24:40.135Z,22.80
2018-05-18T19:27:10.041Z,16.90
2018-05-18T19:29:39.170Z,19.43
2018-05-18T19:32:08.328Z,21.23
2018-05-18T19:34:37.474Z,22.30
2018-05-18T19:37:07.581Z,26.10
2018-05-18T19:39:36.761Z,23.20
2018-05-18T19:42:05.908Z,22.13
2018-05-18T19:44:35.046Z,21.20
2018-05-18T19:47:04.311Z,17.73
2018-05-18T19:49:34.251Z,19.30
2018-05-18T19:52:03.429Z,18.45
2018-05-18T19:54:33.675Z,23.87
2018-05-18T19:57:02.846Z,21.48
2018-05-18T19:59:32.737Z,25.73
2018-05-18T20:02:01.900Z,20.65
2018-05-18T20:04:31.081Z,17.83
2018-05-18T20:07:00.781Z,18.90
2018-05-18T20:09:29.926Z,18.40
2018-05-18T20:11:59.088Z,16.85
2018-05-18T20:14:28.207Z,25.60
2018-05-18T20:16:57.340Z,20.12
2018-05-18T20:19:28.295Z,19.77
2018-05-18T20:21:57.449Z,19.48
2018-05-18T20:24:26.820Z,27.20
2018-05-18T20:26:55.951Z,14.32
2018-05-18T20:29:25.060Z,18.93
2018-05-18T20:31:55.308Z,18.13
2018-05-18T20:34:25.206Z,20.43
2018-05-18T20:36:55.107Z,30.00
2018-05-18T20:39:24.264Z,16.27
2018-05-18T20:41:53.601Z,18.15
2018-05-18T20:44:23.658Z,16.13
2018-05-18T20:46:53.566Z,19.30
2018-05-18T20:49:23.462Z,25.73
2018-05-18T20:51:52.628Z,20.37
2018-05-18T20:54:22.486Z,25.43
2018-05-18T20:56:52.368Z,34.23
2018-05-18T20:59:21.526Z,20.87
2018-05-18T21:01:50.644Z,22.37
2018-05-18T21:04:19.813Z,16.43
2018-05-18T21:06:48.915Z,20.17
2018-05-18T21:09:18.055Z,17.07
2018-05-18T21:11:47.773Z,22.70
2018-05-18T21:14:18.622Z,22.03
2018-05-18T21:16:47.825Z,24.13
2018-05-18T21:19:18.241Z,22.30
2018-05-18T21:21:48.945Z,21.88
2018-05-18T21:24:18.108Z,22.03
2018-05-18T21:26:47.884Z,19.53
2018-05-18T21:29:16.966Z,22.57
2018-05-18T21:31:46.070Z,24.33
2018-05-18T21:34:15.193Z,24.80
2018-05-18T21:36:44.323Z,23.80
2018-05-18T21:39:13.458Z,23.50
2018-05-18T21:41:42.597Z,19.87
2018-05-18T21:44:12.687Z,25.13
2018-05-18T21:46:42.574Z,26.73
2018-05-18T21:49:11.695Z,20.20
2018-05-18T21:51:41.573Z,22.53
2018-05-18T21:54:10.719Z,31.83
2018-05-18T21:56:40.613Z,18.60
2018-05-18T21:59:10.531Z,22.20
2018-05-18T22:01:39.633Z,20.00
2018-05-18T22:04:09.504Z,18.57
2018-05-18T22:06:38.669Z,21.30
2018-05-18T22:09:07.766Z,19.57
2018-05-18T22:11:36.929Z,17.80
2018-05-18T22:14:06.820Z,22.23
2018-05-18T22:16:37.792Z,26.73
2018-05-18T22:19:07.670Z,19.50
2018-05-18T22:21:36.802Z,19.30
2018-05-18T22:24:06.686Z,22.60
2018-05-18T22:26:36.821Z,17.37
2018-05-18T22:29:05.942Z,19.47
2018-05-18T22:31:35.076Z,18.73
2018-05-18T22:34:04.220Z,21.67
2018-05-18T22:36:33.374Z,23.12
2018-05-18T22:39:02.484Z,21.77
2018-05-18T22:41:31.577Z,17.37
2018-05-18T22:44:00.717Z,18.50
2018-05-18T22:46:31.625Z,21.53
2018-05-18T22:49:01.567Z,15.87
2018-05-18T22:51:31.471Z,17.90
2018-05-18T22:54:01.351Z,24.50
2018-05-18T22:56:32.178Z,17.90
2018-05-18T22:59:01.287Z,19.45
2018-05-18T23:01:31.336Z,20.17
2018-05-18T23:04:00.453Z,20.10
2018-05-18T23:06:30.344Z,15.30
2018-05-18T23:09:00.229Z,21.00
2018-05-18T23:11:30.289Z,19.23
2018-05-18T23:13:59.430Z,23.73
2018-05-18T23:16:28.599Z,18.47
2018-05-18T23:18:58.471Z,21.60
2018-05-18T23:21:27.693Z,23.87
2018-05-18T23:23:56.795Z,24.00
2018-05-18T23:26:26.658Z,20.50
2018-05-18T23:28:55.779Z,19.77
2018-05-18T23:31:25.673Z,17.97
2018-05-18T23:33:55.076Z,20.03
2018-05-18T23:36:25.708Z,17.97
2018-05-18T23:38:55.150Z,20.50
2018-05-18T23:41:24.279Z,20.57
2018-05-18T23:43:53.419Z,19.73
2018-05-18T23:46:22.555Z,24.70
2018-05-18T23:48:51.929Z,21.73
2018-05-18T23:51:21.015Z,20.50
2018-05-18T23:53:51.887Z,22.60
2018-05-18T23:56:21.020Z,22.03
2018-05-18T23:58:50.299Z,24.90
